createdAt,value
2018-06-13T00:00:23.300Z,75.57
2018-06-13T00:01:03.703Z,75.48
2018-06-13T00:01:44.078Z,75.67
2018-06-13T00:02:24.768Z,76.06
2018-06-13T00:03:06.096Z,75.87
2018-06-13T00:04:56.733Z,77.01
2018-06-13T00:05:34.922Z,75.63
2018-06-13T00:06:16.539Z,75.92
2018-06-13T00:06:56.886Z,76.02
2018-06-13T00:07:37.215Z,75.82
2018-06-13T00:08:17.873Z,75.54
2018-06-13T00:08:58.307Z,75.87
2018-06-13T00:09:40.068Z,76.06
2018-06-13T00:10:20.767Z,75.67
2018-06-13T00:11:01.442Z,75.63
2018-06-13T00:11:42.591Z,75.92
2018-06-13T00:12:22.920Z,75.45
2018-06-13T00:13:03.487Z,75.35
2018-06-13T00:13:43.791Z,75.25
2018-06-13T00:14:26.018Z,75.35
2018-06-13T00:15:06.675Z,76.02
2018-06-13T00:15:47.059Z,75.92
2018-06-13T00:16:28.487Z,76.12
2018-06-13T00:17:08.947Z,75.82
2018-06-13T00:17:49.386Z,76.12
2018-06-13T00:18:30.531Z,76.4
2018-06-13T00:19:10.946Z,76.79
2018-06-13T00:19:51.357Z,77.26
2018-06-13T00:20:31.863Z,77.94
2018-06-13T00:21:12.476Z,77.08
2018-06-13T00:21:52.791Z,77.08
2018-06-13T00:22:33.189Z,77.46
2018-06-13T00:23:13.833Z,76.98
2018-06-13T00:23:56.091Z,77.08
2018-06-13T00:24:36.451Z,77.26
2018-06-13T00:25:16.933Z,76.69
2018-06-13T00:25:57.513Z,75.73
2018-06-13T00:26:37.808Z,75.82
2018-06-13T00:27:18.197Z,76.59
2018-06-13T00:27:58.658Z,76.88
2018-06-13T00:28:39.050Z,76.88
2018-06-13T00:29:19.464Z,76.79
2018-06-13T00:29:59.863Z,77.46
2018-06-13T00:30:41.245Z,77.08
2018-06-13T00:31:21.660Z,77.17
2018-06-13T00:32:03.645Z,77.46
2018-06-13T00:32:43.957Z,76.59
2018-06-13T00:33:24.561Z,77.26
2018-06-13T00:34:05.038Z,77.08
2018-06-13T00:34:45.357Z,76.59
2018-06-13T00:35:25.787Z,76.79
2018-06-13T00:36:07.465Z,76.59
2018-06-13T00:36:47.905Z,76.98
2018-06-13T00:37:28.246Z,76.69
2018-06-13T00:38:08.769Z,76.31
2018-06-13T00:38:49.166Z,76.59
2018-06-13T00:39:29.863Z,76.88
2018-06-13T00:40:10.238Z,76.12
2018-06-13T00:40:50.750Z,76.5
2018-06-13T00:41:31.322Z,76.88
2018-06-13T00:42:11.784Z,76.79
2018-06-13T00:42:52.074Z,76.12
2018-06-13T00:43:32.489Z,75.82
2018-06-13T00:44:12.892Z,76.17
2018-06-13T00:44:53.290Z,76.56
2018-06-13T00:45:34.534Z,76.27
2018-06-13T00:46:15.037Z,75.98
2018-06-13T00:46:55.530Z,76.46
2018-06-13T00:47:35.771Z,76.84
2018-06-13T00:48:16.815Z,76.46
2018-06-13T00:48:57.039Z,76.56
2018-06-13T00:49:37.494Z,75.89
2018-06-13T00:50:17.954Z,75.98
2018-06-13T00:50:58.565Z,75.5
2018-06-13T00:51:38.713Z,75.6
2018-06-13T00:52:19.144Z,75.79
2018-06-13T00:52:59.890Z,75.79
2018-06-13T00:53:40.364Z,76.84
2018-06-13T00:54:20.664Z,77.13
2018-06-13T00:55:02.631Z,77.23
2018-06-13T00:55:43.048Z,77.23
2018-06-13T00:57:56.208Z,76.65
2018-06-13T00:58:36.702Z,76.65
2018-06-13T00:59:17.326Z,77.04
2018-06-13T00:59:57.760Z,76.65
2018-06-13T01:00:38.189Z,77.13
2018-06-13T01:01:18.543Z,77.09
2018-06-13T01:01:59.014Z,76.81
2018-06-13T01:02:39.411Z,76.37
2018-06-13T01:03:19.811Z,77
2018-06-13T01:04:00.275Z,76.84
2018-06-13T01:04:40.639Z,76.37
2018-06-13T01:05:21.005Z,76.62
2018-06-13T01:06:01.469Z,77.95
2018-06-13T01:06:41.819Z,77.76
2018-06-13T01:07:22.254Z,77.61
2018-06-13T01:08:02.660Z,77.23
2018-06-13T01:08:43.131Z,77.42
2018-06-13T01:09:23.448Z,76.56
2018-06-13T01:10:03.904Z,75.98
2018-06-13T01:10:45.077Z,76.71
2018-06-13T01:11:25.443Z,75.75
2018-06-13T01:12:05.860Z,77
2018-06-13T01:12:46.257Z,77.19
2018-06-13T01:13:26.654Z,77
2018-06-13T01:14:07.096Z,76.71
2018-06-13T01:14:48.439Z,76.52
2018-06-13T01:15:28.826Z,76.81
2018-06-13T01:16:09.155Z,76.62
2018-06-13T01:16:49.621Z,77.09
2018-06-13T01:17:29.976Z,77.38
2018-06-13T01:18:10.465Z,76.62
2018-06-13T01:18:50.861Z,76.42
2018-06-13T01:19:36.554Z,76.71
2018-06-13T01:20:16.811Z,77.48
2018-06-13T01:20:57.154Z,76.52
2018-06-13T01:21:37.595Z,77.38
2018-06-13T01:22:18.028Z,77.38
2018-06-13T01:22:58.399Z,76.62
2018-06-13T01:23:39.107Z,77.58
2018-06-13T01:24:19.734Z,76.9
2018-06-13T01:25:00.179Z,77.48
2018-06-13T01:25:40.574Z,77.48
2018-06-13T01:26:22.585Z,77.58
2018-06-13T01:27:03.075Z,76.71
2018-06-13T01:27:44.245Z,77.76
2018-06-13T01:28:24.649Z,77.58
2018-06-13T01:29:05.046Z,77.67
2018-06-13T01:29:45.649Z,77.67
2018-06-13T01:30:26.084Z,77
2018-06-13T01:31:06.473Z,77.76
2018-06-13T01:31:46.898Z,76.71
2018-06-13T01:32:27.335Z,76.81
2018-06-13T01:33:07.714Z,76.81
2018-06-13T01:33:48.036Z,76.62
2018-06-13T01:34:28.512Z,76.37
2018-06-13T01:35:08.893Z,75.65
2018-06-13T01:35:50.180Z,76.23
2018-06-13T01:36:30.587Z,76.04
2018-06-13T01:37:11.035Z,76.81
2018-06-13T01:37:51.363Z,76.71
2018-06-13T01:38:31.815Z,76.52
2018-06-13T01:39:12.250Z,76.52
2018-06-13T01:39:52.647Z,75.65
2018-06-13T01:40:33.066Z,75.85
2018-06-13T01:41:13.405Z,76.04
2018-06-13T01:41:53.821Z,76.14
2018-06-13T01:42:34.216Z,76.42
2018-06-13T01:43:14.644Z,76.81
2018-06-13T01:43:55.036Z,75.85
2018-06-13T01:44:35.388Z,75.37
2018-06-13T01:45:15.790Z,75.65
2018-06-13T01:45:56.205Z,75.18
2018-06-13T01:46:36.626Z,75.65
2018-06-13T01:47:17.088Z,77.09
2018-06-13T01:47:57.413Z,77.29
2018-06-13T01:48:37.825Z,77.48
2018-06-13T01:49:18.285Z,77.38
2018-06-13T01:49:58.594Z,75.75
2018-06-13T01:50:39.040Z,75.65
2018-06-13T01:51:19.507Z,75.65
2018-06-13T01:51:59.946Z,76.52
2018-06-13T01:52:40.356Z,76.62
2018-06-13T01:53:20.771Z,76.81
2018-06-13T01:54:01.163Z,77.09
2018-06-13T01:54:41.612Z,77.48
2018-06-13T01:55:21.943Z,77.58
2018-06-13T01:56:02.392Z,76.81
2018-06-13T01:56:42.840Z,76.62
2018-06-13T01:57:24.705Z,76.81
2018-06-13T01:58:05.089Z,76.9
2018-06-13T01:58:45.497Z,76.52
2018-06-13T01:59:25.899Z,75.46
2018-06-13T02:00:06.296Z,75.46
2018-06-13T02:00:46.625Z,75.85
2018-06-13T02:01:27.073Z,76.81
2018-06-13T02:02:07.436Z,77.67
2018-06-13T02:02:47.868Z,77.76
2018-06-13T02:03:28.273Z,77.38
2018-06-13T02:04:13.238Z,77.58
2018-06-13T02:04:56.210Z,77.48
2018-06-13T02:05:37.278Z,77.67
2018-06-13T02:06:18.557Z,77.67
2018-06-13T02:06:59.269Z,77.48
2018-06-13T02:07:39.721Z,77.67
2018-06-13T02:08:22.615Z,77.19
2018-06-13T02:09:03.003Z,77
2018-06-13T02:09:43.389Z,76.56
2018-06-13T02:10:23.835Z,76.52
2018-06-13T02:11:07.500Z,75.95
2018-06-13T02:11:50.971Z,76.04
2018-06-13T02:12:31.342Z,75.75
2018-06-13T02:13:11.715Z,75.5
2018-06-13T02:13:52.180Z,75.75
2018-06-13T02:14:32.636Z,76.04
2018-06-13T02:15:13.005Z,75.56
2018-06-13T02:15:53.795Z,76.23
2018-06-13T02:16:40.919Z,76.42
2018-06-13T02:17:21.424Z,75.65
2018-06-13T02:18:01.763Z,76.81
2018-06-13T02:18:42.192Z,76.04
2018-06-13T02:19:22.554Z,76.62
2018-06-13T02:20:02.932Z,75.95
2018-06-13T02:20:43.295Z,75.85
2018-06-13T02:21:23.747Z,76.04
2018-06-13T02:22:04.127Z,77
2018-06-13T02:22:44.512Z,76.62
2018-06-13T02:23:24.948Z,76.71
2018-06-13T02:24:05.330Z,76.42
2018-06-13T02:24:45.679Z,77.09
2018-06-13T02:25:26.153Z,76.62
2018-06-13T02:26:06.540Z,77
2018-06-13T02:26:46.914Z,77
2018-06-13T02:27:27.435Z,76.62
2018-06-13T02:28:08.172Z,77.09
2018-06-13T02:28:48.158Z,76.62
2018-06-13T02:29:28.520Z,76.62
2018-06-13T02:30:10.520Z,76.52
2018-06-13T02:30:51.539Z,76.52
2018-06-13T02:31:31.812Z,76.81
2018-06-13T02:32:12.293Z,76.52
2018-06-13T02:32:53.207Z,76.81
2018-06-13T02:33:34.735Z,76.42
2018-06-13T02:34:15.568Z,76.52
2018-06-13T02:34:55.909Z,77.09
2018-06-13T02:35:36.220Z,75.85
2018-06-13T02:36:16.655Z,76.52
2018-06-13T02:36:58.745Z,77.38
2018-06-13T02:37:40.769Z,77.09
2018-06-13T02:38:21.151Z,76.81
2018-06-13T02:39:03.939Z,77.19
2018-06-13T02:39:44.621Z,77.48
2018-06-13T02:40:25.111Z,77.09
2018-06-13T02:41:06.540Z,77.38
2018-06-13T02:41:48.610Z,77
2018-06-13T02:42:30.056Z,76.52
2018-06-13T02:43:11.214Z,76.9
2018-06-13T02:43:53.426Z,77.58
2018-06-13T02:44:34.005Z,76.9
2018-06-13T02:45:16.245Z,76.62
2018-06-13T02:45:56.741Z,76.71
2018-06-13T02:46:37.120Z,77
2018-06-13T02:52:56.272Z,76.71
2018-06-13T02:53:36.581Z,76.81
2018-06-13T02:54:16.978Z,76.62
2018-06-13T02:54:57.417Z,76.04
2018-06-13T02:55:37.796Z,76.04
2018-06-13T02:56:18.317Z,76.32
2018-06-13T02:56:58.753Z,76.42
2018-06-13T02:57:39.363Z,76.81
2018-06-13T02:58:19.663Z,77
2018-06-13T02:59:00.201Z,76.81
2018-06-13T02:59:40.556Z,76.9
2018-06-13T03:00:20.999Z,76.62
2018-06-13T03:01:01.675Z,76.52
2018-06-13T03:01:41.975Z,76.52
2018-06-13T03:02:22.302Z,77.19
2018-06-13T03:03:02.932Z,77.48
2018-06-13T03:03:43.337Z,77.19
2018-06-13T03:04:23.800Z,77
2018-06-13T03:05:04.264Z,77.38
2018-06-13T03:05:44.791Z,76.52
2018-06-13T03:06:25.201Z,77.38
2018-06-13T03:07:05.431Z,77
2018-06-13T03:07:45.950Z,76.9
2018-06-13T03:08:26.337Z,76.71
2018-06-13T03:09:06.771Z,76.81
2018-06-13T03:09:47.627Z,76.52
2018-06-13T03:10:28.105Z,76.04
2018-06-13T03:11:08.688Z,76.52
2018-06-13T03:11:49.846Z,76.42
2018-06-13T03:12:30.348Z,76.42
2018-06-13T03:13:10.885Z,76.9
2018-06-13T03:13:51.237Z,76.81
2018-06-13T03:14:31.591Z,77.09
2018-06-13T03:15:12.144Z,76.9
2018-06-13T03:15:53.337Z,76.62
2018-06-13T03:16:34.175Z,76.62
2018-06-13T03:17:15.299Z,77.19
2018-06-13T03:17:55.232Z,77.58
2018-06-13T03:18:35.680Z,77.38
2018-06-13T03:19:17.071Z,76.32
2018-06-13T03:19:56.937Z,77.48
2018-06-13T03:20:37.888Z,77.48
2018-06-13T03:21:18.293Z,77
2018-06-13T03:21:58.942Z,76.81
2018-06-13T03:22:39.349Z,77
2018-06-13T03:23:19.627Z,76.32
2018-06-13T03:24:00.177Z,76.9
2018-06-13T03:24:40.661Z,77.19
2018-06-13T03:25:20.942Z,77.58
2018-06-13T03:26:01.337Z,77.58
2018-06-13T03:26:41.728Z,77.38
2018-06-13T03:28:29.524Z,77.76
2018-06-13T03:29:11.605Z,76.62
2018-06-13T03:29:52.087Z,77.29
2018-06-13T03:30:32.638Z,77.38
2018-06-13T03:31:13.081Z,78.25
2018-06-13T03:31:54.312Z,77.67
2018-06-13T03:32:34.641Z,77.86
2018-06-13T03:33:15.081Z,78.05
2018-06-13T03:35:35.147Z,77.95
2018-06-13T03:36:14.948Z,78.2
2018-06-13T03:36:55.589Z,78.69
2018-06-13T03:37:36.060Z,78.15
2018-06-13T03:38:16.556Z,78.15
2018-06-13T03:42:04.800Z,78.05
2018-06-13T03:42:45.262Z,77.48
2018-06-13T03:43:25.722Z,78.44
2018-06-13T03:44:07.155Z,78.82
2018-06-13T03:44:47.326Z,78.49
2018-06-13T03:45:27.878Z,77.95
2018-06-13T03:46:08.129Z,77.58
2018-06-13T03:46:48.909Z,78.53
2018-06-13T03:47:29.333Z,78.63
2018-06-13T03:48:12.911Z,78.15
2018-06-13T03:48:53.340Z,78.4
2018-06-13T03:49:33.729Z,79.07
2018-06-13T03:50:14.131Z,79.39
2018-06-13T03:50:54.572Z,78.59
2018-06-13T03:51:35.001Z,77.82
2018-06-13T03:52:15.444Z,78.78
2018-06-13T03:52:55.841Z,79.11
2018-06-13T03:53:37.176Z,78.82
2018-06-13T03:54:17.565Z,78.69
2018-06-13T03:54:58.049Z,79.11
2018-06-13T03:55:39.155Z,79.3
2018-06-13T03:56:19.621Z,79.49
2018-06-13T03:57:00.026Z,78.63
2018-06-13T03:57:40.499Z,78.44
2018-06-13T03:58:21.571Z,78.34
2018-06-13T03:59:02.057Z,79.01
2018-06-13T03:59:42.444Z,79.49
2018-06-13T04:00:22.904Z,79.3
2018-06-13T04:01:03.497Z,78.92
2018-06-13T04:01:43.925Z,78.72
2018-06-13T04:02:24.350Z,79.39
2018-06-13T04:46:59.136Z,84.01
2018-06-13T04:47:39.478Z,83.15
2018-06-13T04:48:21.004Z,82.38
2018-06-13T04:49:02.989Z,83.53
2018-06-13T04:49:44.382Z,83.72
2018-06-13T04:50:25.170Z,83.53
2018-06-13T04:51:11.394Z,83.63
2018-06-13T04:51:54.414Z,82.86
2018-06-13T04:52:40.384Z,83.09
2018-06-13T04:53:21.555Z,82.52
2018-06-13T04:54:03.229Z,81.85
2018-06-13T04:54:46.007Z,82.32
2018-06-13T04:55:26.400Z,81.85
2018-06-13T04:56:10.211Z,81.56
2018-06-13T04:56:51.450Z,81.27
2018-06-13T04:57:33.381Z,81.12
2018-06-13T04:58:13.744Z,80.83
2018-06-13T04:58:56.928Z,80.64
2018-06-13T04:59:37.289Z,79.78
2018-06-13T05:00:17.713Z,79.39
2018-06-13T05:02:40.870Z,79.97
2018-06-13T05:03:21.265Z,80.16
2018-06-13T05:04:01.806Z,79.78
2018-06-13T05:04:42.510Z,79.01
2018-06-13T05:05:22.989Z,79.39
2018-06-13T05:06:03.741Z,79.3
2018-06-13T05:06:43.930Z,79.11
2018-06-13T05:07:24.612Z,79.21
2018-06-13T05:08:05.044Z,79.01
2018-06-13T05:08:45.751Z,79.3
2018-06-13T05:09:26.502Z,79.21
2018-06-13T05:10:07.057Z,79.44
2018-06-13T05:10:47.212Z,78.44
2018-06-13T05:11:27.857Z,78.96
2018-06-13T05:12:08.470Z,78.86
2018-06-13T05:12:49.166Z,78.53
2018-06-13T05:13:29.853Z,78.47
2018-06-13T05:14:10.380Z,77.9
2018-06-13T05:14:51.767Z,78.28
2018-06-13T05:15:33.026Z,78
2018-06-13T05:16:13.788Z,77.8
2018-06-13T05:16:54.755Z,77.9
2018-06-13T05:17:35.569Z,78.09
2018-06-13T05:18:16.236Z,78.19
2018-06-13T05:18:56.501Z,78.57
2018-06-13T05:19:36.917Z,78
2018-06-13T05:20:17.566Z,77.9
2018-06-13T05:20:57.910Z,77.23
2018-06-13T05:21:38.301Z,77.33
2018-06-13T05:22:19.011Z,76.84
2018-06-13T05:23:00.268Z,77.13
2018-06-13T05:23:40.727Z,76.37
2018-06-13T05:24:22.235Z,76.94
2018-06-13T05:25:04.773Z,76.65
2018-06-13T05:25:45.681Z,77.13
2018-06-13T05:26:26.236Z,76.75
2018-06-13T05:27:06.607Z,76.75
2018-06-13T05:27:47.382Z,76.37
2018-06-13T05:28:29.132Z,76.79
2018-06-13T05:29:09.870Z,76.4
2018-06-13T05:29:52.125Z,77.08
2018-06-13T05:30:32.636Z,76.59
2018-06-13T05:31:13.595Z,76.5
2018-06-13T05:31:54.891Z,76.56
2018-06-13T05:32:35.913Z,76.59
2018-06-13T05:33:16.400Z,76.5
2018-06-13T05:33:56.926Z,76.79
2018-06-13T05:34:37.445Z,75.92
2018-06-13T05:35:17.788Z,75.92
2018-06-13T05:35:59.087Z,76.21
2018-06-13T05:36:39.807Z,75.54
2018-06-13T05:37:20.585Z,76.02
2018-06-13T05:38:00.791Z,75.92
2018-06-13T05:38:41.273Z,76.12
2018-06-13T05:39:25.844Z,76.02
2018-06-13T05:40:06.735Z,76.12
2018-06-13T05:40:47.170Z,75.92
2018-06-13T05:41:28.296Z,75.73
2018-06-13T05:42:10.667Z,76.31
2018-06-13T05:42:51.783Z,75.92
2018-06-13T05:43:33.202Z,76.12
2018-06-13T05:44:13.947Z,75.73
2018-06-13T05:44:54.321Z,75.82
2018-06-13T05:45:34.762Z,76.12
2018-06-13T05:46:15.417Z,76.02
2018-06-13T05:46:55.917Z,75.45
2018-06-13T05:47:36.242Z,75.82
2018-06-13T05:48:18.517Z,75.73
2018-06-13T05:48:58.235Z,75.82
2018-06-13T05:49:38.981Z,75.63
2018-06-13T05:50:19.515Z,75.63
2018-06-13T05:50:59.991Z,75.2
2018-06-13T05:51:40.470Z,75.57
2018-06-13T05:52:21.127Z,75.45
2018-06-13T05:53:01.546Z,75.45
2018-06-13T05:53:42.165Z,75.06
2018-06-13T05:54:23.148Z,75.54
2018-06-13T05:55:03.331Z,75.63
2018-06-13T05:55:43.714Z,75.54
2018-06-13T05:56:24.624Z,75.54
2018-06-13T05:57:06.172Z,75.63
2018-06-13T05:57:47.298Z,75.54
2018-06-13T05:58:27.541Z,74.87
2018-06-13T05:59:08.286Z,75.48
2018-06-13T05:59:49.362Z,74.9
2018-06-13T06:00:29.839Z,74.81
2018-06-13T06:01:10.299Z,74.81
2018-06-13T06:01:50.781Z,74.81
2018-06-13T06:02:31.303Z,75.67
2018-06-13T06:03:12.365Z,75.2
2018-06-13T06:03:54.332Z,75
2018-06-13T06:04:35.281Z,74.62
2018-06-13T06:05:15.865Z,75.1
2018-06-13T06:05:56.195Z,75
2018-06-13T06:06:37.609Z,74.9
2018-06-13T06:07:18.382Z,75
2018-06-13T06:07:59.658Z,74.71
2018-06-13T06:08:40.327Z,74.52
2018-06-13T06:09:21.385Z,74.33
2018-06-13T06:10:01.657Z,74.52
2018-06-13T06:10:43.083Z,74.43
2018-06-13T06:11:24.159Z,73.66
2018-06-13T06:12:05.744Z,73.94
2018-06-13T06:12:46.512Z,73.85
2018-06-13T06:13:27.081Z,73.56
2018-06-13T06:14:07.525Z,73.46
2018-06-13T06:14:48.046Z,73.75
2018-06-13T06:15:29.237Z,73.56
2018-06-13T06:16:09.714Z,73.94
2018-06-13T06:16:51.012Z,73.94
2018-06-13T06:17:34.072Z,74.13
2018-06-13T06:18:14.608Z,74.23
2018-06-13T06:18:55.667Z,73.94
2018-06-13T06:19:39.333Z,73.56
2018-06-13T06:20:19.932Z,73.56
2018-06-13T06:21:00.559Z,73.75
2018-06-13T06:21:41.447Z,73.75
2018-06-13T06:22:22.054Z,73.37
2018-06-13T06:23:06.184Z,74.52
2018-06-13T06:23:46.416Z,74.71
2018-06-13T06:24:26.930Z,74.71
2018-06-13T06:25:07.461Z,74.71
2018-06-13T06:25:47.894Z,74.81
2018-06-13T06:26:28.474Z,74.52
2018-06-13T06:27:09.230Z,74.13
2018-06-13T06:27:50.665Z,74.04
2018-06-13T06:28:31.909Z,73.56
2018-06-13T06:29:13.853Z,73.56
2018-06-13T06:29:54.742Z,73.75
2018-06-13T06:30:35.385Z,74.13
2018-06-13T06:31:18.183Z,74.04
2018-06-13T06:32:00.110Z,74.13
2018-06-13T06:32:41.008Z,73.18
2018-06-13T06:33:22.454Z,73.85
2018-06-13T06:34:03.784Z,73.5
2018-06-13T06:34:44.798Z,73.6
2018-06-13T06:35:25.587Z,73.31
2018-06-13T06:36:06.349Z,73.11
2018-06-13T06:36:48.071Z,72.92
2018-06-13T06:37:29.184Z,72.83
2018-06-13T06:38:10.556Z,72.83
2018-06-13T06:38:51.724Z,72.34
2018-06-13T06:39:35.595Z,71.87
2018-06-13T06:40:15.984Z,72.16
2018-06-13T06:40:56.737Z,72.16
2018-06-13T06:41:37.801Z,72.19
2018-06-13T06:42:19.063Z,71.96
2018-06-13T06:43:00.925Z,71.67
2018-06-13T06:45:44.691Z,71.39
2018-06-13T06:46:30.546Z,71.96
2018-06-13T06:47:15.065Z,72.16
2018-06-13T06:47:56.049Z,72.38
2018-06-13T06:48:45.267Z,71.23
2018-06-13T06:49:26.839Z,70.75
2018-06-13T06:50:13.027Z,71.52
2018-06-13T06:50:57.495Z,70.94
2018-06-13T06:51:44.787Z,71.14
2018-06-13T06:52:29.882Z,70.75
2018-06-13T06:53:13.695Z,70.17
2018-06-13T06:53:55.208Z,69.5
2018-06-13T06:54:40.600Z,69.89
2018-06-13T06:55:25.785Z,69.79
2018-06-13T07:13:58.189Z,66.65
2018-06-13T07:25:51.059Z,64.15
2018-06-13T07:41:45.346Z,65.56
2018-06-13T07:48:21.176Z,65.27
2018-06-13T07:49:01.614Z,65.46
2018-06-13T07:50:14.930Z,64.31
2018-06-13T07:51:04.855Z,64.4
2018-06-13T07:55:30.118Z,64.53
2018-06-13T08:02:16.299Z,63.83
2018-06-13T08:02:56.877Z,63.64
2018-06-13T08:03:38.210Z,63.54
2018-06-13T08:04:18.661Z,64.12
2018-06-13T08:04:59.201Z,63.54
2018-06-13T08:05:40.286Z,63.25
2018-06-13T08:06:20.875Z,64.31
2018-06-13T08:07:01.472Z,64.98
2018-06-13T08:07:42.775Z,64.31
2018-06-13T08:08:25.219Z,64.31
2018-06-13T08:09:07.176Z,64.31
2018-06-13T08:09:47.462Z,65.3
2018-06-13T08:10:28.110Z,64.63
2018-06-13T08:11:09.181Z,64.22
2018-06-13T08:11:49.382Z,64.73
2018-06-13T08:12:29.793Z,63.67
2018-06-13T08:13:10.451Z,63.76
2018-06-13T08:13:51.001Z,63.67
2018-06-13T08:14:31.691Z,63.48
2018-06-13T08:15:12.972Z,63.48
2018-06-13T08:15:58.953Z,63.25
2018-06-13T08:16:41.055Z,63.35
2018-06-13T08:17:22.700Z,63.54
2018-06-13T08:20:31.865Z,64.4
2018-06-13T08:21:13.985Z,64.12
2018-06-13T08:21:54.477Z,63.35
2018-06-13T08:22:35.832Z,62.58
2018-06-13T08:23:15.751Z,63.35
2018-06-13T08:23:59.369Z,63.35
2018-06-13T08:24:39.310Z,63.06
2018-06-13T08:25:19.739Z,63.73
2018-06-13T08:26:00.814Z,63.54
2018-06-13T08:26:55.970Z,63.06
2018-06-13T08:30:36.202Z,62.58
2018-06-13T08:31:16.800Z,62.77
2018-06-13T08:31:57.292Z,63.54
2018-06-13T08:32:38.005Z,63.64
2018-06-13T08:33:19.345Z,63.64
2018-06-13T08:34:00.030Z,63.25
2018-06-13T08:34:40.659Z,63.54
2018-06-13T08:35:21.435Z,64.12
2018-06-13T08:36:01.902Z,64.02
2018-06-13T08:36:42.966Z,63.54
2018-06-13T08:37:24.267Z,64.02
2018-06-13T08:38:04.720Z,63.83
2018-06-13T08:38:45.347Z,63.45
2018-06-13T08:39:25.663Z,63.64
2018-06-13T08:40:06.301Z,63.54
2018-06-13T08:40:46.663Z,63.54
2018-06-13T08:41:27.142Z,63.76
2018-06-13T08:42:07.610Z,62.99
2018-06-13T08:42:48.336Z,63.28
2018-06-13T08:43:28.822Z,63.38
2018-06-13T08:44:09.613Z,63.28
2018-06-13T08:44:50.043Z,62.32
2018-06-13T08:45:30.772Z,62.8
2018-06-13T08:46:12.427Z,63.57
2018-06-13T08:46:54.257Z,62.99
2018-06-13T08:47:35.684Z,62.13
2018-06-13T08:48:15.776Z,62.61
2018-06-13T08:48:56.470Z,62.8
2018-06-13T08:49:37.680Z,61.68
2018-06-13T08:50:17.854Z,60.72
2018-06-13T08:51:01.220Z,60.72
2018-06-13T08:51:42.689Z,61
2018-06-13T08:52:26.417Z,61.19
2018-06-13T08:53:07.476Z,60.72
2018-06-13T08:53:49.034Z,60.42
2018-06-13T08:54:30.684Z,60.72
2018-06-13T08:55:10.588Z,60.14
2018-06-13T08:57:35.245Z,60.72
2018-06-13T08:58:16.202Z,61.1
2018-06-13T08:58:57.990Z,61.39
2018-06-13T08:59:39.628Z,61.29
2018-06-13T09:00:21.486Z,61.58
2018-06-13T09:01:02.783Z,61.29
2018-06-13T09:01:44.463Z,61.39
2018-06-13T09:02:25.489Z,60.14
2018-06-13T09:03:05.732Z,60.42
2018-06-13T09:03:48.120Z,61.29
2018-06-13T09:04:29.469Z,61.39
2018-06-13T09:05:10.006Z,61
2018-06-13T09:05:50.608Z,60.14
2018-06-13T09:07:08.531Z,61.1
2018-06-13T09:07:49.208Z,60.69
2018-06-13T09:08:30.009Z,60.97
2018-06-13T09:09:10.608Z,61.36
2018-06-13T09:09:51.120Z,61.55
2018-06-13T09:10:31.660Z,62.13
2018-06-13T09:11:12.165Z,62.71
2018-06-13T09:11:52.597Z,62.32
2018-06-13T09:12:34.456Z,61.74
2018-06-13T09:13:15.496Z,61.94
2018-06-13T09:13:56.482Z,62.51
2018-06-13T09:14:39.602Z,62.99
2018-06-13T09:15:19.618Z,62.41
2018-06-13T09:16:00.377Z,62.9
2018-06-13T09:16:40.959Z,63.67
2018-06-13T09:17:21.458Z,63.18
2018-06-13T09:18:02.046Z,62.99
2018-06-13T09:18:43.321Z,63.38
2018-06-13T09:19:24.298Z,64.43
2018-06-13T09:20:04.579Z,64.63
2018-06-13T09:20:46.390Z,63.67
2018-06-13T09:21:27.823Z,64.25
2018-06-13T09:22:08.730Z,64.53
2018-06-13T09:22:49.268Z,64.43
2018-06-13T09:23:29.704Z,63.57
2018-06-13T09:24:11.041Z,64.05
2018-06-13T09:24:51.633Z,63.38
2018-06-13T09:25:32.202Z,63.09
2018-06-13T09:26:13.447Z,62.9
2018-06-13T09:26:54.580Z,63.48
2018-06-13T09:27:34.910Z,64.43
2018-06-13T09:28:15.663Z,64.43
2018-06-13T09:28:56.697Z,64.82
2018-06-13T09:29:37.368Z,63.57
2018-06-13T09:30:17.663Z,63.48
2018-06-13T09:30:58.831Z,63.95
2018-06-13T09:31:42.910Z,65.08
2018-06-13T09:32:24.244Z,64.79
2018-06-13T09:33:04.859Z,65.17
2018-06-13T09:33:45.369Z,65.08
2018-06-13T09:34:26.235Z,65.37
2018-06-13T09:35:06.684Z,65.37
2018-06-13T09:35:47.306Z,65.37
2018-06-13T09:36:28.241Z,65.46
2018-06-13T09:38:57.549Z,67.19
2018-06-13T09:47:27.871Z,68.31
2018-06-13T09:48:10.005Z,68.79
2018-06-13T09:48:55.848Z,68.54
2018-06-13T09:49:37.638Z,68.51
2018-06-13T09:50:18.604Z,68.31
2018-06-13T09:51:00.442Z,68.51
2018-06-13T09:51:41.749Z,68.89
2018-06-13T09:52:23.594Z,68.79
2018-06-13T09:53:04.972Z,68.12
2018-06-13T09:53:46.083Z,67.16
2018-06-13T09:54:27.580Z,66.52
2018-06-13T09:55:09.075Z,67.19
2018-06-13T09:55:50.165Z,66.23
2018-06-13T09:56:36.171Z,66.52
2018-06-13T09:57:17.826Z,67.29
2018-06-13T09:58:00.084Z,66.55
2018-06-13T09:58:41.507Z,65.75
2018-06-13T09:59:23.132Z,65.5
2018-06-13T10:00:04.523Z,65.2
2018-06-13T10:00:45.449Z,65.4
2018-06-13T10:01:26.963Z,65.69
2018-06-13T10:02:07.934Z,65.4
2018-06-13T10:02:51.385Z,65.11
2018-06-13T10:03:33.634Z,64.82
2018-06-13T10:45:02.949Z,60.52
2018-06-13T10:45:44.841Z,60.62
2018-06-13T10:46:26.689Z,59.15
2018-06-13T10:47:07.596Z,60.3
2018-06-13T10:47:48.171Z,60.11
2018-06-13T10:48:28.538Z,60.49
2018-06-13T10:52:48.983Z,60.33
2018-06-13T10:53:29.974Z,59.85
2018-06-13T10:54:10.576Z,58.86
2018-06-13T10:54:51.264Z,60.21
2018-06-13T10:55:33.170Z,59.63
2018-06-13T10:56:15.651Z,58.86
2018-06-13T10:56:58.512Z,58.95
2018-06-13T10:57:38.738Z,58.95
2018-06-13T10:58:19.535Z,57.9
2018-06-13T10:59:00.238Z,60.11
2018-06-13T10:59:42.461Z,59.24
2018-06-13T11:00:23.698Z,60.69
2018-06-13T11:01:03.736Z,60.81
2018-06-13T11:01:44.472Z,59.17
2018-06-13T11:02:25.207Z,58.22
2018-06-13T11:03:05.808Z,58.6
2018-06-13T11:03:46.401Z,59.75
2018-06-13T11:04:27.436Z,59.37
2018-06-13T11:05:07.679Z,59.37
2018-06-13T11:05:49.845Z,57.83
2018-06-13T11:06:31.660Z,58.79
2018-06-13T11:07:13.415Z,57.92
2018-06-13T11:07:54.179Z,57.83
2018-06-13T11:08:34.981Z,58.4
2018-06-13T11:09:16.707Z,57.83
2018-06-13T11:09:58.680Z,58.34
2018-06-13T11:11:46.861Z,58.92
2018-06-13T11:12:26.961Z,58.44
2018-06-13T11:13:07.480Z,59.2
2018-06-13T11:13:48.029Z,58.08
2018-06-13T11:14:29.100Z,57.5
2018-06-13T11:15:09.208Z,57.31
2018-06-13T11:15:50.265Z,56.73
2018-06-13T11:16:30.675Z,56.63
2018-06-13T11:17:11.725Z,56.54
2018-06-13T11:17:52.381Z,55.87
2018-06-13T11:18:33.276Z,55.67
2018-06-13T11:19:14.422Z,55.7
2018-06-13T11:19:55.805Z,56.27
2018-06-13T11:20:36.110Z,55.99
2018-06-13T11:21:16.602Z,54.93
2018-06-13T11:21:57.262Z,55.02
2018-06-13T11:22:37.796Z,54.35
2018-06-13T11:23:18.281Z,52.61
2018-06-13T11:23:59.085Z,52.61
2018-06-13T11:24:40.856Z,54.28
2018-06-13T11:25:22.319Z,54.09
2018-06-13T11:26:04.055Z,51.97
2018-06-13T11:26:44.398Z,51.77
2018-06-13T11:27:25.114Z,52.73
2018-06-13T11:28:05.583Z,53.13
2018-06-13T11:28:46.708Z,53.61
2018-06-13T11:29:27.222Z,52.86
2018-06-13T11:30:07.718Z,51.32
2018-06-13T11:30:48.268Z,51.41
2018-06-13T11:31:29.415Z,51.51
2018-06-13T11:32:10.437Z,51.61
2018-06-13T11:32:51.056Z,51.73
2018-06-13T11:33:32.618Z,50.57
2018-06-13T11:35:25.975Z,51.44
2018-06-13T11:36:09.203Z,50.18
2018-06-13T11:36:50.427Z,50.18
2018-06-13T11:37:31.230Z,49.51
2018-06-13T11:38:12.638Z,49.6
2018-06-13T11:38:53.765Z,49.02
2018-06-13T11:39:35.897Z,49.44
2018-06-13T11:40:16.231Z,47.48
2018-06-13T11:40:56.769Z,48.06
2018-06-13T11:41:37.790Z,49.15
2018-06-13T11:42:19.036Z,48.95
2018-06-13T11:42:59.578Z,48.64
2018-06-13T11:43:40.817Z,47.7
2018-06-13T11:44:21.162Z,48.18
2018-06-13T11:45:03.407Z,49.05
2018-06-13T11:45:45.930Z,48.47
2018-06-13T11:46:25.667Z,49.24
2018-06-13T11:47:23.288Z,47.99
2018-06-13T11:48:04.054Z,48.66
2018-06-13T11:48:44.594Z,48.47
2018-06-13T11:49:25.794Z,49.05
2018-06-13T11:50:06.342Z,49.05
2018-06-13T11:50:47.307Z,48.28
2018-06-13T11:53:37.997Z,49.7
2018-06-13T11:54:19.480Z,48.83
2018-06-13T11:54:59.343Z,48.74
2018-06-13T11:55:39.798Z,49.22
2018-06-13T11:56:20.641Z,49.51
2018-06-13T11:57:01.253Z,49.02
2018-06-13T11:57:41.948Z,49.51
2018-06-13T11:58:22.575Z,49.41
2018-06-13T11:59:03.123Z,49.32
2018-06-13T11:59:43.696Z,49.99